createdAt,value
2018-07-04T00:00:42.871Z,13.00
2018-07-04T00:03:22.596Z,13.00
2018-07-04T00:06:02.268Z,13.10
2018-07-04T00:08:42.141Z,13.10
2018-07-04T00:11:21.857Z,13.10
2018-07-04T00:14:01.512Z,13.10
2018-07-04T00:16:41.228Z,13.10
2018-07-04T00:19:20.944Z,13.00
2018-07-04T00:22:00.612Z,13.00
2018-07-04T00:24:40.199Z,12.90
2018-07-04T00:27:19.901Z,12.80
2018-07-04T00:29:59.476Z,12.60
2018-07-04T00:32:39.259Z,12.40
2018-07-04T00:35:18.890Z,12.20
2018-07-04T00:37:58.562Z,12.00
2018-07-04T00:40:38.152Z,11.90
2018-07-04T00:43:17.699Z,11.80
2018-07-04T00:45:57.255Z,11.90
2018-07-04T00:48:36.979Z,12.00
2018-07-04T00:51:16.699Z,12.00
2018-07-04T00:53:56.363Z,12.00
2018-07-04T00:56:35.997Z,12.00
2018-07-04T00:59:15.669Z,12.00
2018-07-04T01:01:55.309Z,12.00
2018-07-04T01:04:34.903Z,11.90
2018-07-04T01:07:14.514Z,11.90
2018-07-04T01:09:54.244Z,11.90
2018-07-04T01:12:34.000Z,11.90
2018-07-04T01:15:13.536Z,11.90
2018-07-04T01:17:53.291Z,12.00
2018-07-04T01:20:38.432Z,12.10
2018-07-04T01:23:18.114Z,12.10
2018-07-04T01:25:57.709Z,12.20
2018-07-04T01:28:42.927Z,12.30
2018-07-04T01:31:22.665Z,12.30
2018-07-04T01:34:02.302Z,12.30
2018-07-04T01:36:42.104Z,12.40
2018-07-04T01:39:21.908Z,12.40
2018-07-04T01:42:01.552Z,12.40
2018-07-04T01:44:41.321Z,12.20
2018-07-04T01:47:20.958Z,12.20
2018-07-04T01:50:00.847Z,12.10
2018-07-04T01:52:40.571Z,12.10
2018-07-04T01:55:20.289Z,12.20
2018-07-04T01:57:59.888Z,12.20
2018-07-04T02:00:39.615Z,12.10
2018-07-04T02:03:19.271Z,12.00
2018-07-04T02:05:58.998Z,11.90
2018-07-04T02:08:38.831Z,11.90
2018-07-04T02:11:18.583Z,11.80
2018-07-04T02:13:58.259Z,11.70
2018-07-04T02:16:37.963Z,11.70
2018-07-04T02:19:18.062Z,11.60
2018-07-04T02:21:57.880Z,11.40
2018-07-04T02:24:37.494Z,11.30
2018-07-04T02:27:17.155Z,11.30
2018-07-04T02:29:56.849Z,11.30
2018-07-04T02:32:36.641Z,11.40
2018-07-04T02:35:16.333Z,11.50
2018-07-04T02:37:56.149Z,11.50
2018-07-04T02:40:35.707Z,11.60
2018-07-04T02:43:15.225Z,11.60
2018-07-04T02:45:54.821Z,11.60
2018-07-04T02:48:34.442Z,11.70
2018-07-04T02:51:14.095Z,11.70
2018-07-04T02:53:53.922Z,11.70
2018-07-04T02:56:33.587Z,11.80
2018-07-04T02:59:13.223Z,11.80
2018-07-04T03:01:53.191Z,11.90
2018-07-04T03:04:32.989Z,11.80
2018-07-04T03:07:12.897Z,11.70
2018-07-04T03:09:52.738Z,11.60
2018-07-04T03:12:32.607Z,11.50
2018-07-04T03:15:12.308Z,11.40
2018-07-04T03:17:51.987Z,11.30
2018-07-04T03:20:31.700Z,11.30
2018-07-04T03:23:11.460Z,11.30
2018-07-04T03:25:51.215Z,11.40
2018-07-04T03:28:30.904Z,11.40
2018-07-04T03:31:10.695Z,11.40
2018-07-04T03:33:50.254Z,11.30
2018-07-04T03:36:29.904Z,11.30
2018-07-04T03:39:09.499Z,11.40
2018-07-04T03:41:49.238Z,11.40
2018-07-04T03:44:29.302Z,11.50
2018-07-04T03:47:08.998Z,11.60
2018-07-04T03:49:48.665Z,11.80
2018-07-04T03:52:30.407Z,12.10
2018-07-04T03:55:09.980Z,12.40
2018-07-04T03:57:49.703Z,12.70
2018-07-04T04:00:29.387Z,12.90
2018-07-04T04:03:09.145Z,13.00
2018-07-04T04:05:48.849Z,13.20
2018-07-04T04:08:28.710Z,13.30
2018-07-04T04:11:08.471Z,13.40
2018-07-04T04:16:21.754Z,13.80
2018-07-04T04:19:01.432Z,13.80
2018-07-04T04:21:41.174Z,13.80
2018-07-04T04:24:20.944Z,13.90
2018-07-04T04:27:01.069Z,14.00
2018-07-04T04:29:40.953Z,14.30
2018-07-04T04:32:20.762Z,14.60
2018-07-04T04:35:00.486Z,14.90
2018-07-04T04:37:40.190Z,15.10
2018-07-04T04:40:19.927Z,15.20
2018-07-04T04:42:59.688Z,15.50
2018-07-04T04:45:39.312Z,15.80
2018-07-04T04:48:18.983Z,16.20
2018-07-04T04:50:58.729Z,16.60
2018-07-04T04:53:38.483Z,17.10
2018-07-04T04:56:18.152Z,17.60
2018-07-04T04:58:57.848Z,18.00
2018-07-04T05:01:37.565Z,18.30
2018-07-04T05:04:17.412Z,18.40
2018-07-04T05:06:57.168Z,18.70
2018-07-04T05:09:36.875Z,19.30
2018-07-04T05:12:16.536Z,20.00
2018-07-04T05:14:56.237Z,20.50
2018-07-04T05:17:35.896Z,21.00
2018-07-04T05:20:15.589Z,21.50
2018-07-04T05:22:55.274Z,21.80
2018-07-04T05:25:34.974Z,21.90
2018-07-04T05:28:14.716Z,22.10
2018-07-04T05:30:54.323Z,22.70
2018-07-04T05:33:34.095Z,23.50
2018-07-04T05:36:13.652Z,24.40
2018-07-04T05:38:53.387Z,25.70
2018-07-04T05:41:32.965Z,27.20
2018-07-04T05:44:12.833Z,28.20
2018-07-04T05:46:52.700Z,28.40
2018-07-04T05:49:32.344Z,28.50
2018-07-04T05:52:12.039Z,29.20
2018-07-04T05:54:51.711Z,29.60
2018-07-04T05:57:31.478Z,30.00
2018-07-04T06:00:11.232Z,30.20
2018-07-04T06:02:51.455Z,30.20
2018-07-04T06:05:31.246Z,30.40
2018-07-04T06:08:10.917Z,30.70
2018-07-04T06:10:50.772Z,31.00
2018-07-04T06:13:30.264Z,31.00
2018-07-04T06:16:09.989Z,31.10
2018-07-04T06:18:49.716Z,31.40
2018-07-04T06:21:29.549Z,31.20
2018-07-04T06:24:09.311Z,30.60
2018-07-04T06:26:49.135Z,29.80
2018-07-04T06:29:28.763Z,29.40
2018-07-04T06:32:08.416Z,29.00
2018-07-04T06:34:47.953Z,29.00
2018-07-04T06:37:27.797Z,29.10
2018-07-04T06:39:55.123Z,29.20
2018-07-04T06:42:22.429Z,29.30
2018-07-04T06:44:49.771Z,29.00
2018-07-04T06:47:17.080Z,28.20
2018-07-04T06:49:44.381Z,27.30
2018-07-04T06:52:11.707Z,26.30
2018-07-04T06:54:39.013Z,25.60
2018-07-04T06:57:06.336Z,25.10
2018-07-04T06:59:33.660Z,24.40
2018-07-04T07:02:08.544Z,24.00
2018-07-04T07:04:49.227Z,23.50
2018-07-04T07:07:28.792Z,23.20
2018-07-04T07:10:08.744Z,22.90
2018-07-04T07:12:49.084Z,22.60
2018-07-04T07:15:29.266Z,22.50
2018-07-04T07:20:42.728Z,22.30
2018-07-04T07:23:22.859Z,22.40
2018-07-04T07:26:03.131Z,22.50
2018-07-04T07:28:43.073Z,22.80
2018-07-04T07:31:22.795Z,23.30
2018-07-04T07:34:02.648Z,24.00
2018-07-04T07:36:42.458Z,25.10
2018-07-04T07:39:22.987Z,26.20
2018-07-04T07:42:03.024Z,27.20
2018-07-04T07:44:42.596Z,27.70
2018-07-04T07:47:22.400Z,28.00
2018-07-04T07:50:02.195Z,28.50
2018-07-04T07:52:41.823Z,28.80
2018-07-04T07:55:21.571Z,28.70
2018-07-04T07:58:01.293Z,28.50
2018-07-04T08:00:41.110Z,28.50
2018-07-04T08:03:20.955Z,28.70
2018-07-04T08:06:00.473Z,29.50
2018-07-04T08:08:40.209Z,30.40
2018-07-04T08:11:20.073Z,31.50
2018-07-04T08:14:00.023Z,32.10
2018-07-04T08:16:39.715Z,32.60
2018-07-04T08:19:19.477Z,32.50
2018-07-04T08:21:59.271Z,31.90
2018-07-04T08:24:38.923Z,31.70
2018-07-04T08:29:52.316Z,30.70
2018-07-04T08:32:32.091Z,30.20
2018-07-04T08:35:11.878Z,30.10
2018-07-04T08:37:51.507Z,30.10
2018-07-04T08:40:31.155Z,30.50
2018-07-04T08:43:10.807Z,30.60
2018-07-04T08:45:50.644Z,30.40
2018-07-04T08:48:30.471Z,30.20
2018-07-04T08:51:10.136Z,30.00
2018-07-04T08:53:49.933Z,29.90
2018-07-04T08:56:29.786Z,30.10
2018-07-04T08:59:09.604Z,30.20
2018-07-04T09:01:49.239Z,29.80
2018-07-04T09:04:28.895Z,29.50
2018-07-04T09:07:08.712Z,29.10
2018-07-04T09:09:48.430Z,29.10
2018-07-04T09:12:28.236Z,29.50
2018-07-04T09:15:07.864Z,30.00
2018-07-04T09:17:47.549Z,30.20
2018-07-04T09:20:27.264Z,30.10
2018-07-04T09:23:07.176Z,30.20
2018-07-04T09:25:47.028Z,30.40
2018-07-04T09:28:26.756Z,30.50
2018-07-04T09:31:06.484Z,30.50
2018-07-04T09:38:53.489Z,31.40
2018-07-04T09:41:33.152Z,31.80
2018-07-04T09:44:12.891Z,32.20
2018-07-04T09:46:52.806Z,32.20
2018-07-04T09:49:32.566Z,32.30
2018-07-04T09:52:12.170Z,32.40
2018-07-04T09:54:51.858Z,32.30
2018-07-04T09:57:31.690Z,32.10
2018-07-04T10:00:11.488Z,32.20
2018-07-04T10:02:51.236Z,32.20
2018-07-04T10:05:31.125Z,32.20
2018-07-04T10:08:10.824Z,32.10
2018-07-04T10:10:50.558Z,32.20
2018-07-04T10:13:30.239Z,32.10
2018-07-04T10:16:09.896Z,32.00
2018-07-04T10:18:49.646Z,31.80
2018-07-04T10:24:03.065Z,31.50
2018-07-04T10:26:42.743Z,31.50
2018-07-04T10:31:56.219Z,31.70
2018-07-04T10:34:35.972Z,32.40
2018-07-04T10:37:15.828Z,33.10
2018-07-04T10:39:55.603Z,33.50
2018-07-04T10:42:35.296Z,33.60
2018-07-04T10:45:14.936Z,33.30
2018-07-04T10:50:28.293Z,32.50
2018-07-04T10:53:07.951Z,32.60
2018-07-04T10:55:47.555Z,33.40
2018-07-04T10:58:27.228Z,34.20
2018-07-04T11:01:06.908Z,34.70
2018-07-04T11:03:46.719Z,34.90
2018-07-04T11:06:26.406Z,34.70
2018-07-04T11:09:06.009Z,34.60
2018-07-04T11:11:45.664Z,34.70
2018-07-04T11:14:25.520Z,34.90
2018-07-04T11:17:05.536Z,34.50
2018-07-04T11:19:45.179Z,33.60
2018-07-04T11:22:25.058Z,33.00
2018-07-04T11:25:04.707Z,32.50
2018-07-04T11:27:44.432Z,32.20
2018-07-04T11:30:24.367Z,32.20
2018-07-04T11:33:04.024Z,32.20
2018-07-04T11:35:43.798Z,32.50
2018-07-04T11:38:23.571Z,33.10
2018-07-04T11:41:03.407Z,33.70
2018-07-04T11:43:43.023Z,34.50
2018-07-04T11:46:10.345Z,35.20
2018-07-04T11:48:37.649Z,35.30
2018-07-04T11:53:32.537Z,35.40
2018-07-04T11:56:00.377Z,35.50
2018-07-04T11:58:27.816Z,35.30
2018-07-04T12:00:55.498Z,35.40
2018-07-04T12:03:23.522Z,35.50
2018-07-04T12:06:03.596Z,36.00
2018-07-04T12:08:30.897Z,36.60
2018-07-04T12:10:58.446Z,36.90
2018-07-04T12:13:26.880Z,36.30
2018-07-04T12:15:54.222Z,35.90
2018-07-04T12:18:21.527Z,35.70
2018-07-04T12:20:48.872Z,36.00
2018-07-04T12:23:16.300Z,36.20
2018-07-04T12:25:44.616Z,36.10
2018-07-04T12:28:11.916Z,36.20
2018-07-04T12:30:39.283Z,35.90
2018-07-04T12:33:06.587Z,35.40
2018-07-04T12:35:33.897Z,34.90
2018-07-04T12:38:01.225Z,34.70
2018-07-04T12:40:28.531Z,34.80
2018-07-04T12:42:55.852Z,34.90
2018-07-04T12:45:23.159Z,35.10
2018-07-04T12:47:50.480Z,35.30
2018-07-04T12:50:28.258Z,35.30
2018-07-04T12:52:55.603Z,35.20
2018-07-04T12:55:36.020Z,35.10
2018-07-04T12:58:16.602Z,34.80
2018-07-04T13:00:56.408Z,34.90
2018-07-04T13:03:36.112Z,35.00
2018-07-04T13:06:15.951Z,34.90
2018-07-04T13:08:55.540Z,34.90
2018-07-04T13:11:35.369Z,35.20
2018-07-04T13:14:14.981Z,35.50
2018-07-04T13:19:28.380Z,35.90
2018-07-04T13:22:08.085Z,35.70
2018-07-04T13:24:47.704Z,35.30
2018-07-04T13:27:27.570Z,35.00
2018-07-04T13:30:07.364Z,35.00
2018-07-04T13:32:47.243Z,34.90
2018-07-04T13:35:26.923Z,34.80
2018-07-04T13:38:06.532Z,34.80
2018-07-04T13:40:46.136Z,34.90
2018-07-04T13:43:25.844Z,35.20
2018-07-04T13:46:05.470Z,35.20
2018-07-04T13:48:45.155Z,35.20
2018-07-04T13:51:24.879Z,34.80
2018-07-04T13:54:04.552Z,34.60
2018-07-04T13:56:44.182Z,34.50
2018-07-04T14:01:57.700Z,33.90
2018-07-04T14:04:37.388Z,33.20
2018-07-04T14:07:17.133Z,32.90
2018-07-04T14:12:30.365Z,33.60
2018-07-04T14:15:10.120Z,33.80
2018-07-04T14:17:49.871Z,33.90
2018-07-04T14:23:04.104Z,34.10
2018-07-04T14:25:43.940Z,33.50
2018-07-04T14:28:23.941Z,33.00
2018-07-04T14:31:03.735Z,32.70
2018-07-04T14:33:43.432Z,32.50
2018-07-04T14:36:23.009Z,32.60
2018-07-04T14:39:02.697Z,33.00
2018-07-04T14:41:42.287Z,33.50
2018-07-04T14:44:22.024Z,33.70
2018-07-04T14:47:01.807Z,33.80
2018-07-04T14:49:41.628Z,34.10
2018-07-04T14:52:21.370Z,34.50
2018-07-04T14:55:01.080Z,34.80
2018-07-04T14:57:40.868Z,34.60
2018-07-04T15:00:20.528Z,34.40
2018-07-04T15:03:00.231Z,33.70
2018-07-04T15:05:40.142Z,33.10
2018-07-04T15:08:19.864Z,32.80
2018-07-04T15:13:33.408Z,32.40
2018-07-04T15:16:13.064Z,32.30
2018-07-04T15:18:52.712Z,32.40
2018-07-04T15:21:32.665Z,32.50
2018-07-04T15:24:12.383Z,32.40
2018-07-04T15:26:52.236Z,32.30
2018-07-04T15:29:31.882Z,32.30
2018-07-04T15:32:11.611Z,32.30
2018-07-04T15:34:51.185Z,32.10
2018-07-04T15:37:30.985Z,31.90
2018-07-04T15:40:10.618Z,31.80
2018-07-04T15:42:50.444Z,31.70
2018-07-04T15:45:30.076Z,31.70
2018-07-04T15:48:09.864Z,31.70
2018-07-04T15:50:49.464Z,31.70
2018-07-04T15:53:29.355Z,31.60
2018-07-04T15:56:09.204Z,31.70
2018-07-04T15:58:48.932Z,31.90
2018-07-04T16:01:28.542Z,31.90
2018-07-04T16:04:08.275Z,32.00
2018-07-04T16:06:48.047Z,32.10
2018-07-04T16:09:28.159Z,32.20
2018-07-04T16:12:07.945Z,32.30
2018-07-04T16:14:47.758Z,32.40
2018-07-04T16:17:27.648Z,32.50
2018-07-04T16:20:07.322Z,32.70
2018-07-04T16:22:47.128Z,32.80
2018-07-04T16:25:26.810Z,32.80
2018-07-04T16:28:06.356Z,32.60
2018-07-04T16:30:45.888Z,32.50
2018-07-04T16:33:25.591Z,32.30
2018-07-04T16:36:05.342Z,32.30
2018-07-04T16:38:45.088Z,32.20
2018-07-04T16:41:24.883Z,32.20
2018-07-04T16:44:04.667Z,32.20
2018-07-04T16:46:44.315Z,32.20
2018-07-04T16:49:23.896Z,32.00
2018-07-04T16:52:03.546Z,31.90
2018-07-04T16:54:43.149Z,31.70
2018-07-04T16:57:22.956Z,31.50
2018-07-04T17:02:36.316Z,30.90
2018-07-04T17:05:16.169Z,30.50
2018-07-04T17:07:56.026Z,30.00
2018-07-04T17:10:35.740Z,29.60
2018-07-04T17:13:15.927Z,29.10
2018-07-04T17:15:55.578Z,28.80
2018-07-04T17:18:35.192Z,28.60
2018-07-04T17:21:29.959Z,28.50
2018-07-04T17:24:09.648Z,28.40
2018-07-04T17:26:49.372Z,28.30
2018-07-04T17:29:28.993Z,28.30
2018-07-04T17:32:08.713Z,28.40
2018-07-04T17:34:48.224Z,28.40
2018-07-04T17:37:28.031Z,28.40
2018-07-04T17:40:07.807Z,28.50
2018-07-04T17:42:47.375Z,28.50
2018-07-04T17:45:27.092Z,28.40
2018-07-04T17:48:06.885Z,28.40
2018-07-04T17:50:46.515Z,28.20
2018-07-04T17:53:26.300Z,28.00
2018-07-04T17:56:06.061Z,28.00
2018-07-04T17:58:45.845Z,27.90
2018-07-04T18:01:25.536Z,27.90
2018-07-04T18:04:05.195Z,27.90
2018-07-04T18:06:44.929Z,27.80
2018-07-04T18:09:24.834Z,27.90
2018-07-04T18:14:38.329Z,27.70
2018-07-04T18:17:18.020Z,27.60
2018-07-04T18:19:57.712Z,27.50
2018-07-04T18:22:37.528Z,27.40
2018-07-04T18:25:17.228Z,27.40
2018-07-04T18:27:56.905Z,27.40
2018-07-04T18:30:36.567Z,27.30
2018-07-04T18:33:16.144Z,27.30
2018-07-04T18:35:55.873Z,27.20
2018-07-04T18:38:35.544Z,27.20
2018-07-04T18:41:15.359Z,27.10
2018-07-04T18:43:55.036Z,27.00
2018-07-04T18:46:34.962Z,26.80
2018-07-04T18:49:14.564Z,26.70
2018-07-04T18:51:54.425Z,26.60
2018-07-04T18:54:34.196Z,26.50
2018-07-04T18:57:13.783Z,26.40
2018-07-04T18:59:53.677Z,26.20
2018-07-04T19:02:33.416Z,26.00
2018-07-04T19:05:13.269Z,25.90
2018-07-04T19:07:53.024Z,25.70
2018-07-04T19:10:32.653Z,25.50
2018-07-04T19:13:12.387Z,25.30
2018-07-04T19:15:52.165Z,25.20
2018-07-04T19:18:31.836Z,25.00
2018-07-04T19:21:11.478Z,24.80
2018-07-04T19:23:51.332Z,24.70
2018-07-04T19:26:31.223Z,24.60
2018-07-04T19:29:13.991Z,24.50
2018-07-04T19:31:53.669Z,24.50
2018-07-04T19:34:33.373Z,24.40
2018-07-04T19:37:13.148Z,24.10
2018-07-04T19:39:52.899Z,23.80
2018-07-04T19:42:32.601Z,23.60
2018-07-04T19:45:12.264Z,23.50
2018-07-04T19:47:51.969Z,23.40
2018-07-04T19:50:31.816Z,23.30
2018-07-04T19:53:11.448Z,23.20
2018-07-04T19:55:51.132Z,23.10
2018-07-04T19:58:30.771Z,23.10
2018-07-04T20:01:10.463Z,22.80
2018-07-04T20:06:23.940Z,22.30
2018-07-04T20:09:04.886Z,22.10
2018-07-04T20:11:44.639Z,22.00
2018-07-04T20:14:24.350Z,21.80
2018-07-04T20:17:04.268Z,21.70
2018-07-04T20:19:43.964Z,21.50
2018-07-04T20:22:23.696Z,21.30
2018-07-04T20:25:03.344Z,21.00
2018-07-04T20:27:43.049Z,20.80
2018-07-04T20:30:22.706Z,20.70
2018-07-04T20:33:02.411Z,20.60
2018-07-04T20:35:42.145Z,20.60
2018-07-04T20:38:22.264Z,20.70
2018-07-04T20:41:02.144Z,20.80
2018-07-04T20:43:41.792Z,20.80
2018-07-04T20:46:21.440Z,20.80
2018-07-04T20:49:01.186Z,20.80
2018-07-04T20:51:40.808Z,20.80
2018-07-04T20:54:20.832Z,20.70
2018-07-04T20:57:00.477Z,20.70
2018-07-04T20:59:40.244Z,20.70
2018-07-04T21:02:19.987Z,20.50
2018-07-04T21:04:59.671Z,20.20
2018-07-04T21:07:39.512Z,20.00
2018-07-04T21:10:19.261Z,19.90
2018-07-04T21:15:32.746Z,19.50
2018-07-04T21:18:12.453Z,19.40
2018-07-04T21:20:52.120Z,19.40
2018-07-04T21:23:31.787Z,19.30
2018-07-04T21:26:11.484Z,19.20
2018-07-04T21:28:51.283Z,19.10
2018-07-04T21:31:30.795Z,19.00
2018-07-04T21:34:10.414Z,18.80
2018-07-04T21:36:50.108Z,18.80
2018-07-04T21:39:29.887Z,18.80
2018-07-04T21:42:09.739Z,18.90
2018-07-04T21:44:49.520Z,19.00
2018-07-04T21:47:29.252Z,19.10
2018-07-04T21:50:08.876Z,19.10
2018-07-04T21:52:48.680Z,19.10
2018-07-04T21:55:28.252Z,18.90
2018-07-04T21:58:08.046Z,18.80
2018-07-04T22:00:47.737Z,18.60
2018-07-04T22:03:27.627Z,18.40
2018-07-04T22:06:07.153Z,18.20
2018-07-04T22:08:46.945Z,18.10
2018-07-04T22:11:26.680Z,18.10
2018-07-04T22:14:06.544Z,18.00
2018-07-04T22:16:46.424Z,17.90
2018-07-04T22:19:26.116Z,17.90
2018-07-04T22:22:06.004Z,17.90
2018-07-04T22:24:45.788Z,17.80
2018-07-04T22:27:25.632Z,17.80
2018-07-04T22:30:05.540Z,17.70
2018-07-04T22:32:45.449Z,17.50
2018-07-04T22:35:25.196Z,17.50
2018-07-04T22:38:04.953Z,17.60
2018-07-04T22:40:44.754Z,17.70
2018-07-04T22:43:24.471Z,17.60
2018-07-04T22:46:04.243Z,17.40
2018-07-04T22:48:44.055Z,17.20
2018-07-04T22:51:23.760Z,17.10
2018-07-04T22:54:03.525Z,17.10
2018-07-04T22:56:43.287Z,17.10
2018-07-04T22:59:22.951Z,17.20
2018-07-04T23:02:02.840Z,17.30
2018-07-04T23:04:42.412Z,17.40
2018-07-04T23:07:22.225Z,17.50
2018-07-04T23:10:02.250Z,17.50
2018-07-04T23:12:42.196Z,17.50
2018-07-04T23:15:21.983Z,17.40
2018-07-04T23:18:01.813Z,17.00
2018-07-04T23:20:41.630Z,16.80
2018-07-04T23:23:21.392Z,16.60
2018-07-04T23:26:01.175Z,16.60
2018-07-04T23:28:40.901Z,16.60
2018-07-04T23:31:20.600Z,16.70
2018-07-04T23:34:00.288Z,16.80
2018-07-04T23:36:39.904Z,16.90
2018-07-04T23:39:19.468Z,16.80
2018-07-04T23:41:59.069Z,16.70
2018-07-04T23:44:39.017Z,16.60
2018-07-04T23:47:18.676Z,16.50
2018-07-04T23:49:58.402Z,16.30
2018-07-04T23:52:38.986Z,16.20
2018-07-04T23:55:18.647Z,16.20
2018-07-04T23:57:58.293Z,16.30
